P4HSJ KLAX-KJFK
Flight info
| Callsign | P4HSJ |
|---|---|
| Flight time | N/A |
| Altitude | 39000 |
| Route | DOTSS2 CLEEE PKE HIDAT KA27O PAYSO SJN TXO GANJA J72 SPS ADM LIT MEMFS Q34 TONIO BKW DILNN CSN SIE CAMRN5 |
| Aircraft | A320/M-SDE3FGHIRWY/LB1 |
Departure
| Time | 2026-05-01 14:57 |
|---|---|
| Airport | Los Angeles International Airport (KLAX) |
Arrival
| Time | N/A |
|---|---|
| Airport | John F. Kennedy International Airport (KJFK) |
| Time | Latitude | Longitude | Altitude | Speed | Heading |
|---|---|---|---|---|---|
| 2026-05-01 14:09 | 33.94335 | -118.43173 | 95 ft | 0 kts | 263° |
| 2026-05-01 14:41 | 33.94337 | -118.43156 | 94 ft | 4 kts | 263° |
| 2026-05-01 14:41 | 33.94338 | -118.43123 | 94 ft | 4 kts | 278° |
| 2026-05-01 14:41 | 33.94330 | -118.43095 | 94 ft | 4 kts | 316° |
| 2026-05-01 14:41 | 33.94316 | -118.43085 | 95 ft | 1 kts | 353° |
| 2026-05-01 14:42 | 33.94313 | -118.43084 | 94 ft | 0 kts | 353° |
| 2026-05-01 14:46 | 33.94323 | -118.43086 | 95 ft | 3 kts | 353° |
| 2026-05-01 14:46 | 33.94355 | -118.43090 | 94 ft | 6 kts | 353° |
| 2026-05-01 14:47 | 33.94405 | -118.43098 | 95 ft | 9 kts | 353° |
| 2026-05-01 14:47 | 33.94476 | -118.43108 | 96 ft | 12 kts | 353° |
| 2026-05-01 14:47 | 33.94565 | -118.43116 | 98 ft | 13 kts | 358° |
| 2026-05-01 14:48 | 33.94608 | -118.42983 | 99 ft | 13 kts | 85° |
| 2026-05-01 14:48 | 33.94614 | -118.42906 | 99 ft | 15 kts | 84° |
| 2026-05-01 14:48 | 33.94646 | -118.42597 | 99 ft | 22 kts | 83° |
| 2026-05-01 14:49 | 33.94697 | -118.42097 | 98 ft | 23 kts | 83° |
| 2026-05-01 14:49 | 33.94727 | -118.41789 | 98 ft | 23 kts | 83° |
| 2026-05-01 14:50 | 33.94757 | -118.41496 | 99 ft | 24 kts | 83° |
| 2026-05-01 14:50 | 33.94813 | -118.41086 | 101 ft | 20 kts | 83° |
| 2026-05-01 14:51 | 33.94832 | -118.40902 | 100 ft | 24 kts | 82° |
| 2026-05-01 14:51 | 33.94875 | -118.40481 | 100 ft | 24 kts | 83° |
| 2026-05-01 14:52 | 33.94909 | -118.40144 | 100 ft | 15 kts | 83° |
| 2026-05-01 14:52 | 33.94923 | -118.40014 | 99 ft | 13 kts | 84° |
| 2026-05-01 14:52 | 33.94957 | -118.39920 | 102 ft | 0 kts | 27° |
| 2026-05-01 14:54 | 33.94959 | -118.39919 | 102 ft | 1 kts | 26° |
| 2026-05-01 14:55 | 33.94967 | -118.39915 | 103 ft | 2 kts | 24° |
| 2026-05-01 14:55 | 33.94980 | -118.39911 | 105 ft | 2 kts | 10° |
| 2026-05-01 14:55 | 33.95005 | -118.39912 | 108 ft | 6 kts | 353° |
| 2026-05-01 14:55 | 33.95039 | -118.39973 | 108 ft | 12 kts | 270° |
| 2026-05-01 14:56 | 33.95036 | -118.40018 | 109 ft | 0 kts | 263° |
| 2026-05-01 14:56 | 33.95013 | -118.40236 | 110 ft | 67 kts | 263° |
| 2026-05-01 14:56 | 33.94925 | -118.41093 | 108 ft | 135 kts | 263° |
| 2026-05-01 14:56 | 33.94781 | -118.42395 | 375 ft | 165 kts | 262° |
| 2026-05-01 14:57 | 33.94636 | -118.43758 | 1146 ft | 164 kts | 263° |
| 2026-05-01 14:57 | 33.94352 | -118.46688 | 2225 ft | 197 kts | 264° |
| 2026-05-01 14:57 | 33.94263 | -118.48434 | 2627 ft | 221 kts | 268° |
| 2026-05-01 14:58 | 33.94208 | -118.50367 | 3168 ft | 246 kts | 269° |
| 2026-05-01 14:58 | 33.94112 | -118.52533 | 3983 ft | 263 kts | 266° |
| 2026-05-01 14:58 | 33.93961 | -118.54761 | 4698 ft | 270 kts | 265° |
| 2026-05-01 14:58 | 33.93786 | -118.56993 | 4932 ft | 271 kts | 265° |
| 2026-05-01 14:59 | 33.93596 | -118.59257 | 5034 ft | 272 kts | 264° |
| 2026-05-01 14:59 | 33.93014 | -118.61454 | 5864 ft | 279 kts | 239° |
| 2026-05-01 14:59 | 33.91718 | -118.63176 | 7041 ft | 281 kts | 215° |
| 2026-05-01 14:59 | 33.89917 | -118.64065 | 8098 ft | 285 kts | 188° |
| 2026-05-01 15:00 | 33.85930 | -118.63874 | 10266 ft | 289 kts | 172° |
| 2026-05-01 15:00 | 33.83944 | -118.63289 | 10963 ft | 305 kts | 160° |
| 2026-05-01 15:00 | 33.81975 | -118.62093 | 11403 ft | 328 kts | 146° |
| 2026-05-01 15:01 | 33.80069 | -118.60501 | 12147 ft | 338 kts | 144° |
| 2026-05-01 15:01 | 33.78096 | -118.58870 | 12766 ft | 347 kts | 145° |
| 2026-05-01 15:01 | 33.76093 | -118.57233 | 12963 ft | 350 kts | 145° |
| 2026-05-01 15:01 | 33.74066 | -118.55590 | 13012 ft | 351 kts | 145° |
| 2026-05-01 15:02 | 33.72104 | -118.53932 | 13013 ft | 350 kts | 140° |
| 2026-05-01 15:02 | 33.70905 | -118.52586 | 13012 ft | 349 kts | 131° |
| 2026-05-01 15:02 | 33.69061 | -118.49441 | 13022 ft | 348 kts | 115° |
| 2026-05-01 15:02 | 33.68163 | -118.46710 | 13673 ft | 353 kts | 107° |
| 2026-05-01 15:03 | 33.67356 | -118.43917 | 14568 ft | 357 kts | 107° |
| 2026-05-01 15:03 | 33.66514 | -118.41094 | 15399 ft | 362 kts | 108° |
| 2026-05-01 15:03 | 33.65650 | -118.38229 | 16190 ft | 367 kts | 108° |
| 2026-05-01 15:03 | 33.64848 | -118.35297 | 16957 ft | 371 kts | 101° |
| 2026-05-01 15:04 | 33.64468 | -118.32217 | 17729 ft | 374 kts | 90° |
| 2026-05-01 15:04 | 33.64458 | -118.29084 | 18505 ft | 378 kts | 87° |
| 2026-05-01 15:04 | 33.64470 | -118.25910 | 19212 ft | 384 kts | 87° |
| 2026-05-01 15:04 | 33.64479 | -118.22679 | 19934 ft | 390 kts | 87° |
| 2026-05-01 15:05 | 33.64484 | -118.19444 | 20661 ft | 396 kts | 87° |
| 2026-05-01 15:05 | 33.64485 | -118.16117 | 21382 ft | 402 kts | 87° |
| 2026-05-01 15:05 | 33.64483 | -118.12735 | 22050 ft | 408 kts | 87° |
| 2026-05-01 15:05 | 33.64479 | -118.09306 | 22731 ft | 414 kts | 88° |
| 2026-05-01 15:06 | 33.64473 | -118.05823 | 23422 ft | 420 kts | 88° |
| 2026-05-01 15:06 | 33.64467 | -118.02282 | 24077 ft | 426 kts | 88° |
| 2026-05-01 15:06 | 33.64462 | -117.98709 | 24675 ft | 431 kts | 87° |
| 2026-05-01 15:06 | 33.64455 | -117.95086 | 25270 ft | 436 kts | 87° |
| 2026-05-01 15:07 | 33.64448 | -117.91423 | 25865 ft | 442 kts | 87° |
| 2026-05-01 15:07 | 33.64439 | -117.87714 | 26455 ft | 447 kts | 87° |
| 2026-05-01 15:07 | 33.64432 | -117.83960 | 27052 ft | 452 kts | 87° |
| 2026-05-01 15:07 | 33.64509 | -117.80178 | 27635 ft | 455 kts | 81° |
| 2026-05-01 15:08 | 33.65019 | -117.76420 | 28224 ft | 456 kts | 72° |
| 2026-05-01 15:08 | 33.65749 | -117.72694 | 28815 ft | 461 kts | 72° |
| 2026-05-01 15:08 | 33.66480 | -117.68927 | 29392 ft | 466 kts | 72° |
| 2026-05-01 15:08 | 33.67204 | -117.65161 | 29958 ft | 471 kts | 72° |
| 2026-05-01 15:09 | 33.67940 | -117.61305 | 30447 ft | 476 kts | 73° |
| 2026-05-01 15:09 | 33.68687 | -117.57370 | 30918 ft | 481 kts | 73° |
| 2026-05-01 15:09 | 33.69425 | -117.53487 | 31360 ft | 485 kts | 73° |